Time;durP1;ratioP1;P1;durP2;ratioP2;P2;SDS_P1;SDS_P2;PMS_P1;PMS_P2;Temp;Humidity;BMP_temperature;BMP_pressure;BME280_temperature;BME280_humidity;BME280_pressure;Samples;Min_cycle;Max_cycle;Signal;HPM_P1;HPM_P2
2023/06/24 00:05:08;;;;;;;1.25;0.60;;;;;;;15.51;82.66;98342.41;10549993;27;20104;-70
2023/06/24 00:10:30;;;;;;;1.05;0.68;;;;;;;15.55;83.05;98331.38;10624343;27;20043;-70
2023/06/24 00:15:50;;;;;;;1.13;0.50;;;;;;;15.63;83.16;98335.44;10566436;28;20043;-70
2023/06/24 00:21:11;;;;;;;1.35;0.60;;;;;;;15.58;82.86;98336.50;10566439;28;20043;-70
2023/06/24 00:26:32;;;;;;;1.45;0.60;;;;;;;15.52;82.75;98332.59;10562704;27;20043;-70
2023/06/24 00:31:53;;;;;;;1.15;0.50;;;;;;;15.53;82.90;98350.94;10566420;28;20396;-70
2023/06/24 00:37:14;;;;;;;1.15;0.50;;;;;;;15.46;83.03;98352.69;10581236;28;20043;-70
2023/06/24 00:42:35;;;;;;;0.90;0.60;;;;;;;15.46;83.73;98363.94;10588230;28;20054;-70
2023/06/24 00:47:56;;;;;;;0.93;0.60;;;;;;;15.46;82.87;98378.00;10594235;28;20047;-69
2023/06/24 00:53:24;;;;;;;0.80;0.43;;;;;;;15.44;83.73;98389.88;10594414;28;20039;-70
2023/06/24 00:58:47;;;;;;;1.05;0.57;;;;;;;15.49;84.01;98384.47;10594563;28;20062;-70
2023/06/24 01:04:08;;;;;;;0.70;0.40;;;;;;;15.59;84.12;98387.88;10614028;28;20070;-70
2023/06/24 01:09:29;;;;;;;0.95;0.50;;;;;;;15.61;84.13;98388.75;10511515;28;20044;-69
2023/06/24 01:14:50;;;;;;;1.45;0.65;;;;;;;15.63;83.78;98372.00;10513940;28;20424;-70
2023/06/24 01:20:28;;;;;;;2.20;0.80;;;;;;;15.65;83.98;98377.03;10531510;28;20047;-70
2023/06/24 01:26:25;;;;;;;1.30;0.73;;;;;;;15.64;84.14;98373.47;10532013;28;20036;-69
2023/06/24 01:32:02;;;;;;;1.40;1.10;;;;;;;15.59;83.94;98377.38;10530605;28;20056;-69
2023/06/24 01:37:40;;;;;;;1.60;1.00;;;;;;;15.61;84.39;98366.25;10538417;28;20039;-71
2023/06/24 01:43:01;;;;;;;1.27;0.70;;;;;;;15.61;83.99;98352.19;10558767;28;20047;-69
2023/06/24 01:48:24;;;;;;;1.40;0.90;;;;;;;15.69;84.57;98363.91;10527752;28;20051;-70
2023/06/24 01:53:51;;;;;;;1.05;0.80;;;;;;;15.63;84.26;98365.63;10530142;28;20048;-70
2023/06/24 01:59:12;;;;;;;2.08;0.98;;;;;;;15.66;84.21;98370.03;10522054;28;20040;-70
2023/06/24 02:04:33;;;;;;;1.40;0.82;;;;;;;15.69;84.00;98374.44;10569812;27;20055;-68
2023/06/24 02:09:54;;;;;;;1.55;0.73;;;;;;;15.79;84.50;98382.72;10569001;28;20044;-70
2023/06/24 02:15:15;;;;;;;1.50;0.90;;;;;;;15.85;84.20;98391.53;10570512;28;20095;-71
2023/06/24 02:20:36;;;;;;;2.63;0.93;;;;;;;15.93;84.13;98389.91;10556756;28;20393;-70
2023/06/24 02:25:57;;;;;;;2.80;0.82;;;;;;;15.94;84.01;98401.91;10570222;27;20043;-69
2023/06/24 02:31:17;;;;;;;2.38;0.88;;;;;;;16.09;84.08;98411.88;10556621;28;20485;-70
2023/06/24 02:36:39;;;;;;;1.25;0.70;;;;;;;16.15;83.70;98409.41;10570250;28;20422;-70
2023/06/24 02:42:00;;;;;;;1.40;1.00;;;;;;;16.20;84.00;98411.06;10563700;27;20114;-69
2023/06/24 02:47:21;;;;;;;1.60;1.00;;;;;;;16.24;83.87;98403.59;10627560;27;20078;-70
2023/06/24 02:52:41;;;;;;;3.70;0.93;;;;;;;16.24;83.75;98406.41;10596135;27;20096;-69
2023/06/24 02:58:07;;;;;;;3.72;1.10;;;;;;;16.28;83.32;98431.25;10541935;28;20067;-70
2023/06/24 03:03:31;;;;;;;3.85;1.13;;;;;;;16.33;83.60;98441.41;10565825;27;20075;-69
2023/06/24 03:08:52;;;;;;;2.13;1.35;;;;;;;16.33;83.08;98446.31;10505324;28;20123;-70
2023/06/24 03:14:16;;;;;;;3.17;1.30;;;;;;;16.28;82.78;98445.34;10513129;28;20085;-70
2023/06/24 03:19:37;;;;;;;5.28;1.48;;;;;;;16.26;82.73;98440.34;10526939;28;20119;-70
2023/06/24 03:24:58;;;;;;;4.15;1.90;;;;;;;16.22;82.46;98459.09;10566875;28;20114;-69
2023/06/24 03:30:19;;;;;;;3.75;2.17;;;;;;;16.23;82.51;98469.00;10553918;28;20161;-70
2023/06/24 03:35:41;;;;;;;5.28;2.40;;;;;;;16.23;82.49;98457.75;10553353;28;20051;-70
2023/06/24 03:41:05;;;;;;;5.70;2.75;;;;;;;16.27;82.29;98457.97;10497620;28;20044;-70
2023/06/24 03:46:28;;;;;;;3.13;2.58;;;;;;;16.29;82.11;98458.06;10516337;28;20123;-70
2023/06/24 03:51:50;;;;;;;5.28;3.72;;;;;;;16.31;82.21;98470.22;10533756;28;20067;-69
2023/06/24 03:57:10;;;;;;;4.43;2.78;;;;;;;16.30;81.84;98467.97;10552783;28;20039;-71
2023/06/24 04:02:32;;;;;;;7.13;3.80;;;;;;;16.36;81.77;98465.53;10531219;28;20043;-69
2023/06/24 04:07:54;;;;;;;3.83;3.10;;;;;;;16.38;81.67;98459.25;10547352;28;20405;-69
2023/06/24 04:13:15;;;;;;;10.27;4.03;;;;;;;16.44;81.52;98459.63;10510709;28;20064;-70
2023/06/24 04:18:39;;;;;;;7.43;4.13;;;;;;;16.48;80.96;98459.81;10561063;28;20071;-70
2023/06/24 04:24:00;;;;;;;10.60;4.50;;;;;;;16.58;81.04;98457.56;10523480;28;20115;-70
2023/06/24 04:29:21;;;;;;;8.73;3.97;;;;;;;16.70;80.58;98463.94;10531936;28;20119;-70
2023/06/24 04:34:41;;;;;;;6.65;4.38;;;;;;;16.78;80.32;98467.16;10524103;28;20040;-69
2023/06/24 04:40:02;;;;;;;9.20;4.72;;;;;;;16.87;80.05;98466.25;10522730;28;20049;-69
2023/06/24 04:45:23;;;;;;;9.00;4.35;;;;;;;16.91;79.76;98467.84;10537947;28;20082;-70
2023/06/24 04:50:44;;;;;;;12.73;4.68;;;;;;;16.97;79.77;98468.88;10545639;28;20533;-69
2023/06/24 04:56:13;;;;;;;9.10;4.28;;;;;;;17.02;79.52;98481.88;10546358;28;20072;-71
2023/06/24 05:01:33;;;;;;;8.57;4.30;;;;;;;17.14;79.33;98482.50;10546315;28;20063;-69
2023/06/24 05:06:54;;;;;;;6.53;3.83;;;;;;;17.26;78.52;98493.72;10536181;28;20068;-69
2023/06/24 05:12:15;;;;;;;9.05;4.57;;;;;;;17.39;78.82;98495.84;10588047;28;20160;-68
2023/06/24 05:17:35;;;;;;;10.80;4.15;;;;;;;17.45;78.16;98501.78;10588689;28;20472;-69
2023/06/24 05:22:56;;;;;;;7.82;4.80;;;;;;;17.46;77.95;98496.88;10588482;28;20063;-70
2023/06/24 05:28:17;;;;;;;8.82;4.85;;;;;;;17.45;77.69;98503.88;10575027;28;20068;-70
2023/06/24 05:33:38;;;;;;;9.93;4.55;;;;;;;17.50;77.54;98508.38;10545885;28;20089;-70
2023/06/24 05:38:58;;;;;;;8.07;4.78;;;;;;;17.48;77.45;98516.00;10556178;28;20060;-70
2023/06/24 05:44:19;;;;;;;9.27;5.32;;;;;;;17.58;77.23;98522.91;10562013;28;20074;-70
2023/06/24 05:49:40;;;;;;;7.15;4.60;;;;;;;17.61;76.97;98532.22;10578990;28;20120;-71
2023/06/24 05:55:01;;;;;;;8.90;6.00;;;;;;;17.67;76.82;98538.19;10581072;28;20462;-70
2023/06/24 06:00:22;;;;;;;8.45;5.85;;;;;;;17.80;76.66;98536.75;10544119;28;20498;-70
2023/06/24 06:05:43;;;;;;;8.05;5.63;;;;;;;17.81;76.54;98546.69;10572662;28;20058;-71
2023/06/24 06:11:03;;;;;;;9.80;6.45;;;;;;;17.83;76.47;98543.97;10586394;28;20509;-71
2023/06/24 06:16:25;;;;;;;13.23;6.72;;;;;;;17.79;76.48;98558.63;10556940;28;20093;-70
2023/06/24 06:21:45;;;;;;;15.05;7.95;;;;;;;17.70;76.00;98563.09;10585371;28;20119;-70
2023/06/24 06:27:10;;;;;;;12.60;8.82;;;;;;;17.67;76.36;98564.34;10556582;28;20454;-71
2023/06/24 06:32:31;;;;;;;12.70;9.27;;;;;;;17.65;76.71;98569.13;10557213;28;20120;-70
2023/06/24 06:37:54;;;;;;;12.73;9.95;;;;;;;17.72;76.83;98566.03;10543884;28;20124;-70
2023/06/24 06:43:18;;;;;;;13.18;10.15;;;;;;;17.86;77.07;98568.16;10543422;28;20161;-70
2023/06/24 06:48:44;;;;;;;13.63;10.23;;;;;;;18.62;77.17;98559.22;10542827;28;20068;-70
2023/06/24 06:54:04;;;;;;;11.50;9.70;;;;;;;21.08;75.24;98550.25;10549243;28;20462;-71
2023/06/24 06:59:25;;;;;;;11.35;8.77;;;;;;;23.36;71.39;98557.44;10568456;28;20178;-70
2023/06/24 07:04:47;;;;;;;9.85;7.93;;;;;;;25.75;67.34;98556.38;10558213;27;20118;-68
2023/06/24 07:10:08;;;;;;;;;;;;;;;27.55;57.61;98554.38;10597317;27;20070;-69
2023/06/24 07:15:29;;;;;;;9.77;7.85;;;;;;;28.44;58.81;98548.97;10574394;27;20334;-70
2023/06/24 07:20:53;;;;;;;10.20;7.18;;;;;;;30.24;55.17;98551.47;10595443;27;20059;-70
2023/06/24 07:26:13;;;;;;;9.05;7.03;;;;;;;31.84;48.85;98555.66;10596840;27;20157;-69
2023/06/24 07:31:34;;;;;;;9.18;7.45;;;;;;;31.53;46.40;98547.09;10556830;27;20119;-69
2023/06/24 07:44:08;;;;;;;11.68;7.35;;;;;;;29.34;45.76;98551.09;10586771;27;20043;-68
2023/06/24 07:49:28;;;;;;;8.52;7.13;;;;;;;29.80;44.60;98547.00;10567237;28;20483;-69
2023/06/24 07:54:49;;;;;;;11.23;7.20;;;;;;;30.61;42.82;98548.66;10566994;28;20506;-69
2023/06/24 08:00:11;;;;;;;7.00;6.30;;;;;;;31.47;40.82;98540.66;10592404;27;20045;-70
2023/06/24 08:05:35;;;;;;;14.13;7.40;;;;;;;30.65;38.55;98551.53;10575564;27;20158;-70
2023/06/24 08:10:56;;;;;;;7.50;6.70;;;;;;;29.69;40.09;98556.31;10564918;28;20039;-70
2023/06/24 08:16:18;;;;;;;7.05;6.32;;;;;;;29.93;39.34;98556.41;10525248;28;20109;-70
2023/06/24 08:21:38;;;;;;;;;;;;;;;30.06;38.26;98554.28;10549059;28;20032;-68
2023/06/24 08:27:00;;;;;;;8.65;6.57;;;;;;;28.78;38.48;98560.75;10538837;28;20354;-68
2023/06/24 08:32:21;;;;;;;6.90;5.53;;;;;;;28.70;39.53;98551.34;10538709;28;20048;-70
2023/06/24 08:37:42;;;;;;;6.33;5.73;;;;;;;28.72;39.37;98560.69;10516436;28;20060;-71
2023/06/24 08:43:02;;;;;;;6.28;5.15;;;;;;;27.95;39.50;98559.91;10565458;28;20083;-68
2023/06/24 08:48:23;;;;;;;8.85;6.38;;;;;;;26.90;40.47;98571.34;10538539;28;20123;-70
2023/06/24 08:53:44;;;;;;;6.22;5.50;;;;;;;27.61;40.44;98563.81;10519294;28;20067;-70
2023/06/24 08:59:06;;;;;;;7.20;6.03;;;;;;;27.57;40.86;98566.59;10509012;28;20040;-70
2023/06/24 09:04:26;;;;;;;7.25;5.57;;;;;;;29.41;40.06;98568.38;10561555;28;20086;-76
2023/06/24 09:09:50;;;;;;;7.40;5.97;;;;;;;30.34;36.60;98565.91;10613289;28;20047;-68
2023/06/24 09:15:14;;;;;;;7.43;6.70;;;;;;;30.44;36.56;98557.28;10622544;28;20067;-68
2023/06/24 09:20:39;;;;;;;8.90;5.70;;;;;;;31.80;35.72;98565.06;10622068;28;20047;-67
2023/06/24 09:26:01;;;;;;;6.38;4.78;;;;;;;32.16;32.51;98564.16;10621879;28;20046;-69
2023/06/24 09:31:23;;;;;;;6.45;5.07;;;;;;;31.46;32.36;98568.78;10553334;28;20048;-69
2023/06/24 09:36:45;;;;;;;7.18;5.72;;;;;;;30.74;32.98;98570.28;10588937;27;20136;-69
2023/06/24 09:42:07;;;;;;;;;;;;;;;30.69;33.84;98560.19;10587896;27;20055;-68
2023/06/24 09:47:28;;;;;;;6.70;5.13;;;;;;;30.80;32.52;98567.41;10625672;27;19919;-69
2023/06/24 09:52:50;;;;;;;6.10;5.00;;;;;;;30.04;32.75;98562.94;10623882;27;20066;-68
2023/06/24 09:58:11;;;;;;;5.57;4.88;;;;;;;29.95;33.98;98565.06;10605733;27;20400;-68
2023/06/24 10:03:33;;;;;;;6.05;4.25;;;;;;;29.64;33.95;98564.22;10552821;27;20055;-70
2023/06/24 10:08:54;;;;;;;5.25;4.20;;;;;;;30.62;32.20;98558.72;10528791;28;20406;-69
2023/06/24 10:14:16;;;;;;;4.85;4.45;;;;;;;30.77;32.68;98563.06;10566137;28;20051;-68
2023/06/24 10:19:39;;;;;;;5.07;3.65;;;;;;;30.79;32.21;98560.19;10563810;28;20048;-71
2023/06/24 10:25:00;;;;;;;5.22;3.70;;;;;;;31.20;31.65;98554.38;10528382;28;20466;-71
2023/06/24 10:30:23;;;;;;;7.18;3.65;;;;;;;31.54;31.35;98550.69;10516261;28;20048;-71
2023/06/24 10:35:44;;;;;;;5.00;3.78;;;;;;;32.34;30.19;98556.88;10523372;28;20064;-69
2023/06/24 10:41:15;;;;;;;4.28;3.58;;;;;;;32.36;29.43;98543.13;10563212;28;20043;-70
2023/06/24 10:46:36;;;;;;;4.85;3.40;;;;;;;32.76;28.83;98535.56;10526910;28;20052;-68
2023/06/24 10:51:57;;;;;;;4.68;3.22;;;;;;;33.61;27.79;98536.19;10556633;28;20036;-71
2023/06/24 10:57:26;;;;;;;4.20;3.20;;;;;;;34.11;26.93;98529.03;10545912;28;20126;-72
2023/06/24 11:02:47;;;;;;;4.30;3.15;;;;;;;32.98;26.45;98526.00;10516601;28;20112;-70
2023/06/24 11:08:08;;;;;;;4.65;2.88;;;;;;;32.81;26.68;98530.47;10551403;28;20521;-74
2023/06/24 11:13:33;;;;;;;5.22;2.75;;;;;;;32.17;26.34;98522.28;10559053;28;20043;-78
2023/06/24 11:18:55;;;;;;;3.30;3.00;;;;;;;32.04;26.68;98512.25;10512764;28;20469;-72
2023/06/24 11:24:45;;;;;;;4.60;2.93;;;;;;;31.62;26.69;98511.00;10538946;28;20493;-70
2023/06/24 11:30:06;;;;;;;3.77;3.13;;;;;;;31.89;27.10;98508.72;10523784;28;20044;-72
2023/06/24 11:35:29;;;;;;;4.03;2.90;;;;;;;32.02;27.01;98502.88;10496332;28;20398;-71
2023/06/24 11:40:50;;;;;;;3.58;3.08;;;;;;;32.09;26.12;98495.63;10540071;28;20067;-71
2023/06/24 11:46:20;;;;;;;2.97;2.67;;;;;;;31.60;26.28;98493.69;10524643;28;20421;-72
2023/06/24 11:51:48;;;;;;;2.45;2.25;;;;;;;31.47;25.87;98506.75;10526580;28;20086;-71
2023/06/24 11:57:10;;;;;;;3.35;2.60;;;;;;;31.05;26.14;98501.78;10539781;28;20070;-71
2023/06/24 12:02:37;;;;;;;5.40;3.03;;;;;;;30.02;26.86;98503.19;10539991;28;20075;-71
2023/06/24 12:08:02;;;;;;;3.22;2.67;;;;;;;29.89;26.49;98479.41;10540348;28;20056;-69
2023/06/24 12:13:24;;;;;;;6.30;3.00;;;;;;;29.19;27.11;98477.00;10524591;28;20472;-71
2023/06/24 12:18:45;;;;;;;3.83;2.92;;;;;;;29.19;27.99;98471.97;10524528;28;20093;-71
2023/06/24 12:24:06;;;;;;;3.25;2.78;;;;;;;29.75;27.58;98470.75;10524483;28;20093;-69
2023/06/24 12:29:27;;;;;;;3.43;3.13;;;;;;;29.85;27.04;98473.66;10524440;28;20044;-69
2023/06/24 12:34:48;;;;;;;4.15;2.75;;;;;;;30.01;26.78;98460.72;10524141;28;20040;-69
2023/06/24 12:40:09;;;;;;;4.00;2.50;;;;;;;29.56;27.06;98452.00;10524101;28;20040;-71
2023/06/24 12:45:30;;;;;;;3.97;2.55;;;;;;;29.59;26.75;98453.44;10539282;28;20048;-71
2023/06/24 12:50:53;;;;;;;3.75;2.67;;;;;;;29.14;26.51;98453.25;10509674;28;20383;-68
2023/06/24 12:56:14;;;;;;;4.50;2.55;;;;;;;28.93;26.68;98451.69;10524154;28;20048;-71
2023/06/24 13:01:34;;;;;;;7.22;2.63;;;;;;;28.95;26.96;98434.47;10509605;28;20115;-71
2023/06/24 13:06:55;;;;;;;6.32;2.72;;;;;;;28.69;27.42;98438.59;10570727;28;20054;-72
2023/06/24 13:12:16;;;;;;;3.00;2.42;;;;;;;28.56;26.98;98439.22;10558021;28;20039;-71
2023/06/24 13:17:37;;;;;;;4.87;2.87;;;;;;;28.59;26.79;98438.53;10559654;28;20044;-71
2023/06/24 13:22:59;;;;;;;4.05;2.75;;;;;;;28.52;26.82;98440.63;10573757;28;20067;-69
2023/06/24 13:28:20;;;;;;;4.47;2.45;;;;;;;28.73;27.02;98435.75;10572846;28;20052;-69
2023/06/24 13:33:40;;;;;;;4.20;2.63;;;;;;;28.70;26.88;98431.44;10573177;28;20439;-69
2023/06/24 13:39:06;;;;;;;2.90;2.53;;;;;;;28.24;26.80;98435.38;10558224;28;20504;-69
2023/06/24 13:44:26;;;;;;;4.53;2.90;;;;;;;28.00;27.48;98435.19;10544804;28;20075;-71
2023/06/24 13:49:47;;;;;;;7.25;3.00;;;;;;;27.74;27.82;98438.50;10587418;28;20040;-69
2023/06/24 13:55:08;;;;;;;5.32;3.15;;;;;;;27.62;27.96;98438.34;10557895;28;20048;-71
2023/06/24 14:00:29;;;;;;;4.93;2.97;;;;;;;27.32;27.77;98422.25;10572000;28;20042;-69
2023/06/24 14:05:50;;;;;;;5.50;3.60;;;;;;;27.45;28.18;98419.53;10563246;28;20489;-68
2023/06/24 14:11:12;;;;;;;5.17;3.53;;;;;;;27.24;28.14;98421.44;10544516;28;20044;-69
2023/06/24 14:16:33;;;;;;;7.38;3.90;;;;;;;27.31;28.25;98417.19;10515004;28;20040;-69
2023/06/24 14:21:54;;;;;;;8.03;4.07;;;;;;;27.27;28.40;98417.16;10528635;28;20044;-71
2023/06/24 14:27:15;;;;;;;6.55;4.20;;;;;;;27.01;28.38;98406.78;10543649;28;20054;-71
2023/06/24 14:32:36;;;;;;;5.70;4.10;;;;;;;26.75;28.68;98412.91;10543477;28;20048;-68
2023/06/24 14:37:57;;;;;;;5.00;4.37;;;;;;;26.64;28.97;98404.88;10543393;28;20040;-69
2023/06/24 14:43:18;;;;;;;7.38;3.65;;;;;;;26.70;29.80;98405.66;10528011;28;20478;-68
2023/06/24 14:48:40;;;;;;;7.23;4.27;;;;;;;26.75;30.16;98401.44;10527822;28;20048;-69
2023/06/24 14:54:01;;;;;;;7.57;4.32;;;;;;;26.57;30.37;98397.59;10543403;28;20127;-69
2023/06/24 14:59:22;;;;;;;6.65;4.10;;;;;;;26.40;30.95;98391.63;10527645;28;20064;-69
2023/06/24 15:04:43;;;;;;;7.82;4.53;;;;;;;26.40;30.79;98397.34;10526763;28;20074;-69
2023/06/24 15:10:05;;;;;;;8.43;5.30;;;;;;;26.34;30.83;98388.63;10541310;28;20112;-69
2023/06/24 15:15:26;;;;;;;;;;;;;;;26.03;31.28;98395.31;10584574;28;20420;-69
2023/06/24 15:20:48;;;;;;;9.37;4.83;;;;;;;25.88;31.50;98388.63;10583816;28;20284;-69
2023/06/24 15:26:09;;;;;;;11.50;4.90;;;;;;;25.85;31.61;98393.56;10554595;28;20040;-68
2023/06/24 15:31:30;;;;;;;5.90;4.25;;;;;;;25.82;32.00;98389.25;10566957;28;20047;-67
2023/06/24 15:36:51;;;;;;;7.85;5.05;;;;;;;25.59;32.56;98378.81;10568147;28;20051;-69
2023/06/24 15:42:12;;;;;;;6.72;5.15;;;;;;;25.51;32.81;98370.81;10567590;28;20097;-69
2023/06/24 15:47:33;;;;;;;7.25;5.07;;;;;;;25.41;33.05;98384.91;10582827;28;20508;-67
2023/06/24 15:52:57;;;;;;;7.28;4.95;;;;;;;25.40;33.36;98381.31;10568328;28;20039;-69
2023/06/24 15:58:18;;;;;;;6.28;4.78;;;;;;;25.15;34.00;98373.69;10552980;28;20090;-68
2023/06/24 16:03:39;;;;;;;5.45;4.18;;;;;;;24.90;34.59;98386.72;10548244;28;20493;-69
2023/06/24 16:09:01;;;;;;;7.10;4.35;;;;;;;24.72;35.98;98387.06;10525176;28;20044;-69
2023/06/24 16:14:22;;;;;;;5.95;4.72;;;;;;;24.66;36.00;98384.06;10524838;28;20123;-68
2023/06/24 16:19:42;;;;;;;6.18;4.65;;;;;;;24.47;36.35;98380.06;10539609;28;20119;-69
2023/06/24 16:25:03;;;;;;;7.85;5.15;;;;;;;24.53;36.05;98391.63;10524657;28;20506;-69
2023/06/24 16:30:24;;;;;;;5.80;4.63;;;;;;;24.50;36.19;98389.41;10539575;28;20091;-69
2023/06/24 16:35:45;;;;;;;8.45;5.82;;;;;;;24.46;36.12;98389.31;10524171;28;20119;-69
2023/06/24 16:41:06;;;;;;;7.97;4.57;;;;;;;24.31;35.91;98381.78;10524347;28;20116;-69
2023/06/24 16:46:31;;;;;;;8.25;5.00;;;;;;;24.21;35.89;98388.72;10546998;28;20063;-69
2023/06/24 16:51:52;;;;;;;6.88;4.70;;;;;;;24.05;35.88;98381.91;10532777;28;20119;-68
2023/06/24 16:57:12;;;;;;;7.22;4.65;;;;;;;23.95;36.39;98380.25;10547336;28;20063;-68
2023/06/24 17:02:33;;;;;;;6.10;4.75;;;;;;;23.82;36.51;98380.63;10532208;28;20513;-68
2023/06/24 17:07:54;;;;;;;7.30;3.88;;;;;;;23.65;36.59;98383.06;10544450;28;20502;-69
2023/06/24 17:13:15;;;;;;;6.43;4.50;;;;;;;23.60;36.72;98387.19;10545780;28;20067;-68
2023/06/24 17:18:35;;;;;;;5.47;4.20;;;;;;;23.55;37.14;98374.22;10531546;28;20060;-68
2023/06/24 17:23:56;;;;;;;7.65;4.55;;;;;;;23.41;37.47;98377.41;10545411;28;20127;-69
2023/06/24 17:29:17;;;;;;;5.07;4.13;;;;;;;23.27;37.89;98379.88;10545234;28;20169;-69
2023/06/24 17:34:37;;;;;;;6.65;3.95;;;;;;;23.20;38.43;98374.69;10531042;28;20117;-68
2023/06/24 17:39:58;;;;;;;5.55;4.50;;;;;;;23.05;38.67;98377.13;10544868;28;20119;-69
2023/06/24 17:45:19;;;;;;;6.60;4.13;;;;;;;22.95;39.28;98379.69;10530683;28;20119;-68
2023/06/24 17:50:39;;;;;;;6.20;4.45;;;;;;;22.71;39.80;98379.69;10545405;28;20165;-68
2023/06/24 17:56:00;;;;;;;7.15;4.25;;;;;;;22.56;40.48;98381.38;10515477;28;20071;-69
2023/06/24 18:01:25;;;;;;;8.60;5.05;;;;;;;22.39;41.15;98379.44;10543960;28;20063;-69
2023/06/24 18:06:45;;;;;;;6.97;4.28;;;;;;;22.21;41.97;98390.22;10543620;28;20123;-68
2023/06/24 18:12:06;;;;;;;8.65;4.57;;;;;;;22.03;42.20;98383.94;10544494;28;20486;-69
2023/06/24 18:17:27;;;;;;;5.35;4.10;;;;;;;21.92;42.51;98377.91;10529295;28;20210;-68
2023/06/24 18:22:47;;;;;;;5.60;4.40;;;;;;;21.73;42.83;98392.91;10528926;28;20438;-68
2023/06/24 18:28:09;;;;;;;6.10;4.15;;;;;;;21.59;43.03;98393.13;10543513;28;20165;-68
2023/06/24 18:33:29;;;;;;;6.05;3.67;;;;;;;21.42;43.40;98383.34;10543727;28;20121;-69
2023/06/24 18:38:50;;;;;;;8.40;3.88;;;;;;;21.26;43.82;98388.44;10528185;28;20162;-68
2023/06/24 18:44:11;;;;;;;5.90;4.00;;;;;;;21.10;43.87;98382.88;10543487;28;20556;-68
2023/06/24 18:49:32;;;;;;;6.35;4.28;;;;;;;21.00;44.12;98379.66;10527741;28;20064;-68
2023/06/24 18:54:52;;;;;;;6.15;4.38;;;;;;;20.88;44.28;98387.00;10543091;28;20082;-68
2023/06/24 19:00:13;;;;;;;4.70;3.78;;;;;;;20.72;44.68;98390.69;10542492;28;20111;-69
2023/06/24 19:05:36;;;;;;;8.18;4.97;;;;;;;20.61;45.56;98385.28;10562146;28;20135;-68
2023/06/24 19:10:56;;;;;;;7.80;4.50;;;;;;;20.48;45.48;98384.09;10584942;28;20078;-69
2023/06/24 19:16:18;;;;;;;8.00;4.28;;;;;;;20.34;45.87;98389.91;10569063;28;20114;-69
2023/06/24 19:21:39;;;;;;;7.25;3.95;;;;;;;20.20;46.51;98390.06;10568980;28;20201;-68
2023/06/24 19:27:00;;;;;;;5.03;3.65;;;;;;;20.02;46.56;98386.50;10583952;28;20126;-69
2023/06/24 19:32:20;;;;;;;8.00;3.97;;;;;;;19.86;47.07;98386.56;10554346;28;20071;-68
2023/06/24 19:37:42;;;;;;;4.90;3.58;;;;;;;19.73;47.73;98399.50;10583369;28;20063;-68
2023/06/24 19:43:03;;;;;;;6.35;4.05;;;;;;;19.57;48.21;98395.97;10583298;28;20043;-69
2023/06/24 19:48:24;;;;;;;6.80;4.05;;;;;;;19.46;48.54;98396.88;10583153;28;20115;-68
2023/06/24 19:53:44;;;;;;;8.10;4.53;;;;;;;19.35;49.05;98407.06;10582564;28;20049;-69
2023/06/24 19:59:05;;;;;;;6.75;3.83;;;;;;;19.23;49.62;98397.31;10553232;28;20119;-69
2023/06/24 20:04:26;;;;;;;6.18;4.07;;;;;;;19.11;50.07;98395.41;10555801;28;20123;-69
2023/06/24 20:09:46;;;;;;;5.47;4.20;;;;;;;19.03;50.42;98402.81;10525197;28;20050;-69
2023/06/24 20:15:07;;;;;;;6.22;4.13;;;;;;;18.95;50.81;98403.16;10510672;28;20047;-68
2023/06/24 20:20:28;;;;;;;5.13;3.90;;;;;;;18.90;51.41;98406.44;10524420;28;20124;-69
2023/06/24 20:25:49;;;;;;;5.97;3.97;;;;;;;18.87;51.72;98403.53;10524663;28;20048;-68
2023/06/24 20:31:09;;;;;;;9.73;4.20;;;;;;;18.83;51.85;98402.63;10524526;28;20455;-69
2023/06/24 20:36:30;;;;;;;5.90;4.18;;;;;;;18.72;52.04;98397.84;10524668;28;20154;-69
2023/06/24 20:41:51;;;;;;;5.60;3.88;;;;;;;18.66;52.62;98406.06;10539213;28;20119;-69
2023/06/24 20:47:11;;;;;;;9.35;4.35;;;;;;;18.65;52.60;98399.69;10510114;28;20111;-69
2023/06/24 20:52:35;;;;;;;8.52;4.22;;;;;;;18.67;53.07;98399.03;10509879;28;20090;-69
2023/06/24 20:57:56;;;;;;;4.65;3.58;;;;;;;18.70;52.99;98394.94;10539233;28;20120;-69
2023/06/24 21:03:17;;;;;;;7.25;4.47;;;;;;;18.73;53.12;98404.97;10540344;28;20064;-68
2023/06/24 21:08:38;;;;;;;7.63;4.20;;;;;;;18.75;53.18;98402.25;10580746;28;20073;-68
2023/06/24 21:13:58;;;;;;;7.85;4.15;;;;;;;18.77;53.17;98391.75;10551532;28;20123;-70
2023/06/24 21:19:19;;;;;;;7.07;4.20;;;;;;;18.75;53.55;98390.94;10551348;28;20172;-70
2023/06/24 21:24:39;;;;;;;6.22;3.45;;;;;;;18.73;53.57;98393.66;10565724;28;20114;-69
2023/06/24 21:30:00;;;;;;;7.07;3.83;;;;;;;18.65;53.63;98384.81;10566940;28;20043;-69
2023/06/24 21:35:21;;;;;;;6.43;3.60;;;;;;;18.63;53.67;98385.44;10559222;28;20489;-69
2023/06/24 21:40:41;;;;;;;5.78;3.10;;;;;;;18.60;53.67;98378.94;10558600;28;20123;-69
2023/06/24 21:46:03;;;;;;;5.25;3.70;;;;;;;18.59;54.00;98388.78;10558556;28;20521;-70
2023/06/24 21:51:23;;;;;;;6.20;3.25;;;;;;;18.55;54.62;98397.09;10572717;28;20130;-69
2023/06/24 21:56:44;;;;;;;7.22;4.22;;;;;;;18.50;54.10;98380.56;10587511;28;20040;-69
2023/06/24 22:02:05;;;;;;;6.90;3.33;;;;;;;18.50;54.36;98389.75;10587388;28;20063;-69
2023/06/24 22:07:25;;;;;;;6.35;3.50;;;;;;;18.52;54.68;98381.38;10515677;28;20071;-69
2023/06/24 22:12:46;;;;;;;10.30;3.60;;;;;;;18.47;54.81;98390.31;10543653;28;20122;-69
2023/06/24 22:18:07;;;;;;;6.60;3.90;;;;;;;18.38;55.04;98386.38;10543346;28;20043;-68
2023/06/24 22:23:27;;;;;;;4.97;3.53;;;;;;;18.33;55.13;98390.38;10543621;28;20085;-68
2023/06/24 22:28:49;;;;;;;7.20;3.78;;;;;;;18.17;55.34;98400.91;10543205;28;20507;-69
2023/06/24 22:34:12;;;;;;;5.45;3.60;;;;;;;18.09;55.94;98392.78;10543803;28;20456;-69
2023/06/24 22:39:33;;;;;;;5.38;3.72;;;;;;;18.02;56.09;98393.84;10542631;28;20088;-69
2023/06/24 22:44:53;;;;;;;6.47;3.85;;;;;;;17.97;56.44;98401.38;10527934;28;20530;-69
2023/06/24 22:50:14;;;;;;;5.80;3.78;;;;;;;17.95;56.69;98389.25;10542254;28;20111;-69
2023/06/24 22:55:34;;;;;;;7.13;3.42;;;;;;;17.90;56.75;98393.25;10527799;28;20165;-69
2023/06/24 23:00:56;;;;;;;6.53;3.97;;;;;;;17.69;56.91;98395.06;10541726;28;20044;-70
2023/06/24 23:06:20;;;;;;;7.15;3.72;;;;;;;17.62;57.51;98398.19;10526360;28;20114;-70
2023/06/24 23:11:42;;;;;;;4.53;3.45;;;;;;;17.60;57.84;98395.25;10527157;28;20071;-70
2023/06/24 23:17:03;;;;;;;8.60;3.90;;;;;;;17.59;58.19;98385.34;10526915;28;20067;-70
2023/06/24 23:22:24;;;;;;;5.47;3.80;;;;;;;17.62;58.26;98395.38;10512799;28;20139;-69
2023/06/24 23:27:45;;;;;;;5.10;3.33;;;;;;;17.63;58.39;98399.66;10526661;28;20119;-70
2023/06/24 23:33:05;;;;;;;4.43;3.88;;;;;;;17.58;58.60;98393.06;10512459;28;20046;-70
2023/06/24 23:38:27;;;;;;;5.68;4.07;;;;;;;17.55;58.85;98393.59;10512379;28;20170;-70
2023/06/24 23:43:48;;;;;;;7.82;4.10;;;;;;;17.46;59.17;98393.16;10541187;28;20124;-70
2023/06/24 23:49:09;;;;;;;7.85;3.92;;;;;;;17.30;59.53;98388.81;10511772;28;20054;-70
2023/06/24 23:54:29;;;;;;;5.65;3.63;;;;;;;17.21;59.79;98387.66;10524619;28;20070;-69
2023/06/24 23:59:50;;;;;;;6.35;4.18;;;;;;;17.13;60.18;98392.88;10511385;28;20115;-70
